<?xml version="1.0" encoding="UTF-8" standalone="no" ?>
<gpx xmlns="http://www.topografix.com/GPX/1/1" xmlns:xsi="http://www.w3.org/2001/XMLSchema-instance" xsi:schemaLocation="http://www.topografix.com/GPX/1/1 http://www.topografix.com/GPX/1/1/gpx.xsd" version="1.1" creator="VisuGPX - https://www.visugpx.com">
  <metadata>
    <name>13637500-Oingt balade g2</name>
  </metadata>
  <trk>
    <name><![CDATA[13637500-Oingt balade g2]]></name>
    <extensions>
      <line xmlns="http://www.topografix.com/GPX/gpx_style/0/2">
        <color>00FF00</color>
        <width>4</width>
      </line>
    </extensions>
    <trkseg>
      <trkpt lat="45.94898" lon="4.5826">
        <ele>525</ele>
        <time>2021-08-30T19:06:39Z</time>
      </trkpt>
      <trkpt lat="45.94905" lon="4.58302">
        <ele>526</ele>
        <time>2021-08-30T19:07:19Z</time>
      </trkpt>
      <trkpt lat="45.94894" lon="4.58303">
        <ele>527</ele>
        <time>2021-08-30T19:07:34Z</time>
      </trkpt>
      <trkpt lat="45.94891" lon="4.58303">
        <ele>527</ele>
        <time>2021-08-30T19:07:38Z</time>
      </trkpt>
      <trkpt lat="45.94881" lon="4.58305">
        <ele>528</ele>
        <time>2021-08-30T19:07:51Z</time>
      </trkpt>
      <trkpt lat="45.94871" lon="4.58296">
        <ele>529</ele>
        <time>2021-08-30T19:08:07Z</time>
      </trkpt>
      <trkpt lat="45.94867" lon="4.58283">
        <ele>530</ele>
        <time>2021-08-30T19:08:20Z</time>
      </trkpt>
      <trkpt lat="45.94851" lon="4.58279">
        <ele>532</ele>
        <time>2021-08-30T19:08:42Z</time>
      </trkpt>
      <trkpt lat="45.94845" lon="4.58272">
        <ele>533</ele>
        <time>2021-08-30T19:08:52Z</time>
      </trkpt>
      <trkpt lat="45.94821" lon="4.58255">
        <ele>537</ele>
        <time>2021-08-30T19:09:28Z</time>
      </trkpt>
      <trkpt lat="45.94812" lon="4.58253">
        <ele>537</ele>
        <time>2021-08-30T19:09:40Z</time>
      </trkpt>
      <trkpt lat="45.94804" lon="4.58191">
        <ele>530</ele>
        <time>2021-08-30T19:10:39Z</time>
      </trkpt>
      <trkpt lat="45.94792" lon="4.58189">
        <ele>530</ele>
        <time>2021-08-30T19:10:55Z</time>
      </trkpt>
      <trkpt lat="45.94753" lon="4.58191">
        <ele>530</ele>
        <time>2021-08-30T19:11:47Z</time>
      </trkpt>
      <trkpt lat="45.94731" lon="4.58203">
        <ele>529</ele>
        <time>2021-08-30T19:12:18Z</time>
      </trkpt>
      <trkpt lat="45.94733" lon="4.58213">
        <ele>530</ele>
        <time>2021-08-30T19:12:28Z</time>
      </trkpt>
      <trkpt lat="45.9473" lon="4.58228">
        <ele>532</ele>
        <time>2021-08-30T19:12:42Z</time>
      </trkpt>
      <trkpt lat="45.94733" lon="4.58246">
        <ele>535</ele>
        <time>2021-08-30T19:12:59Z</time>
      </trkpt>
      <trkpt lat="45.9474" lon="4.58254">
        <ele>535</ele>
        <time>2021-08-30T19:13:11Z</time>
      </trkpt>
      <trkpt lat="45.9474" lon="4.58266">
        <ele>534</ele>
        <time>2021-08-30T19:13:23Z</time>
      </trkpt>
      <trkpt lat="45.94735" lon="4.58265">
        <ele>533</ele>
        <time>2021-08-30T19:13:29Z</time>
      </trkpt>
      <trkpt lat="45.94672" lon="4.58279">
        <ele>526</ele>
        <time>2021-08-30T19:14:54Z</time>
      </trkpt>
      <trkpt lat="45.9468" lon="4.58288">
        <ele>526</ele>
        <time>2021-08-30T19:15:08Z</time>
      </trkpt>
      <trkpt lat="45.94676" lon="4.58304">
        <ele>524</ele>
        <time>2021-08-30T19:15:24Z</time>
      </trkpt>
      <trkpt lat="45.94667" lon="4.58315">
        <ele>523</ele>
        <time>2021-08-30T19:15:39Z</time>
      </trkpt>
      <trkpt lat="45.94658" lon="4.58393">
        <ele>512</ele>
        <time>2021-08-30T19:16:53Z</time>
      </trkpt>
      <trkpt lat="45.94659" lon="4.58415">
        <ele>509</ele>
        <time>2021-08-30T19:17:13Z</time>
      </trkpt>
      <trkpt lat="45.94648" lon="4.58431">
        <ele>507</ele>
        <time>2021-08-30T19:17:34Z</time>
      </trkpt>
      <trkpt lat="45.94628" lon="4.58475">
        <ele>501</ele>
        <time>2021-08-30T19:18:23Z</time>
      </trkpt>
      <trkpt lat="45.94593" lon="4.58499">
        <ele>497</ele>
        <time>2021-08-30T19:19:15Z</time>
      </trkpt>
      <trkpt lat="45.94566" lon="4.58535">
        <ele>491</ele>
        <time>2021-08-30T19:20:04Z</time>
      </trkpt>
      <trkpt lat="45.94544" lon="4.58564">
        <ele>486</ele>
        <time>2021-08-30T19:20:44Z</time>
      </trkpt>
      <trkpt lat="45.94517" lon="4.58593">
        <ele>480</ele>
        <time>2021-08-30T19:21:29Z</time>
      </trkpt>
      <trkpt lat="45.94433" lon="4.58654">
        <ele>467</ele>
        <time>2021-08-30T19:23:34Z</time>
      </trkpt>
      <trkpt lat="45.94424" lon="4.5867">
        <ele>464</ele>
        <time>2021-08-30T19:23:53Z</time>
      </trkpt>
      <trkpt lat="45.94393" lon="4.5874">
        <ele>456</ele>
        <time>2021-08-30T19:25:10Z</time>
      </trkpt>
      <trkpt lat="45.94344" lon="4.58797">
        <ele>447</ele>
        <time>2021-08-30T19:26:34Z</time>
      </trkpt>
      <trkpt lat="45.94223" lon="4.58912">
        <ele>435</ele>
        <time>2021-08-30T19:29:48Z</time>
      </trkpt>
      <trkpt lat="45.94221" lon="4.58922">
        <ele>435</ele>
        <time>2021-08-30T19:29:58Z</time>
      </trkpt>
      <trkpt lat="45.94216" lon="4.58922">
        <ele>435</ele>
        <time>2021-08-30T19:30:04Z</time>
      </trkpt>
      <trkpt lat="45.94176" lon="4.58938">
        <ele>435</ele>
        <time>2021-08-30T19:31:00Z</time>
      </trkpt>
      <trkpt lat="45.94154" lon="4.58943">
        <ele>435</ele>
        <time>2021-08-30T19:31:29Z</time>
      </trkpt>
      <trkpt lat="45.94135" lon="4.58942">
        <ele>435</ele>
        <time>2021-08-30T19:31:55Z</time>
      </trkpt>
      <trkpt lat="45.94116" lon="4.58933">
        <ele>436</ele>
        <time>2021-08-30T19:32:21Z</time>
      </trkpt>
      <trkpt lat="45.9409" lon="4.58914">
        <ele>440</ele>
        <time>2021-08-30T19:33:00Z</time>
      </trkpt>
      <trkpt lat="45.94066" lon="4.58901">
        <ele>443</ele>
        <time>2021-08-30T19:33:35Z</time>
      </trkpt>
      <trkpt lat="45.9404" lon="4.58904">
        <ele>442</ele>
        <time>2021-08-30T19:34:09Z</time>
      </trkpt>
      <trkpt lat="45.94009" lon="4.58911">
        <ele>440</ele>
        <time>2021-08-30T19:34:51Z</time>
      </trkpt>
      <trkpt lat="45.93992" lon="4.58908">
        <ele>441</ele>
        <time>2021-08-30T19:35:14Z</time>
      </trkpt>
      <trkpt lat="45.93978" lon="4.58904">
        <ele>442</ele>
        <time>2021-08-30T19:35:33Z</time>
      </trkpt>
      <trkpt lat="45.93972" lon="4.58898">
        <ele>443</ele>
        <time>2021-08-30T19:35:43Z</time>
      </trkpt>
      <trkpt lat="45.93965" lon="4.58875">
        <ele>448</ele>
        <time>2021-08-30T19:36:06Z</time>
      </trkpt>
      <trkpt lat="45.9395" lon="4.58847">
        <ele>452</ele>
        <time>2021-08-30T19:36:39Z</time>
      </trkpt>
      <trkpt lat="45.93903" lon="4.58789">
        <ele>453</ele>
        <time>2021-08-30T19:38:02Z</time>
      </trkpt>
      <trkpt lat="45.93898" lon="4.58779">
        <ele>453</ele>
        <time>2021-08-30T19:38:13Z</time>
      </trkpt>
      <trkpt lat="45.93897" lon="4.58764">
        <ele>454</ele>
        <time>2021-08-30T19:38:27Z</time>
      </trkpt>
      <trkpt lat="45.93907" lon="4.58694">
        <ele>461</ele>
        <time>2021-08-30T19:39:33Z</time>
      </trkpt>
      <trkpt lat="45.93899" lon="4.58677">
        <ele>461</ele>
        <time>2021-08-30T19:39:52Z</time>
      </trkpt>
      <trkpt lat="45.93853" lon="4.58668">
        <ele>455</ele>
        <time>2021-08-30T19:40:54Z</time>
      </trkpt>
      <trkpt lat="45.93808" lon="4.5867">
        <ele>450</ele>
        <time>2021-08-30T19:41:54Z</time>
      </trkpt>
      <trkpt lat="45.93789" lon="4.5868">
        <ele>448</ele>
        <time>2021-08-30T19:42:21Z</time>
      </trkpt>
      <trkpt lat="45.93775" lon="4.58691">
        <ele>446</ele>
        <time>2021-08-30T19:42:43Z</time>
      </trkpt>
      <trkpt lat="45.93731" lon="4.58733">
        <ele>440</ele>
        <time>2021-08-30T19:43:53Z</time>
      </trkpt>
      <trkpt lat="45.93715" lon="4.58744">
        <ele>438</ele>
        <time>2021-08-30T19:44:17Z</time>
      </trkpt>
      <trkpt lat="45.9367" lon="4.58772">
        <ele>435</ele>
        <time>2021-08-30T19:45:22Z</time>
      </trkpt>
      <trkpt lat="45.93653" lon="4.58785">
        <ele>433</ele>
        <time>2021-08-30T19:45:48Z</time>
      </trkpt>
      <trkpt lat="45.93619" lon="4.58808">
        <ele>429</ele>
        <time>2021-08-30T19:46:38Z</time>
      </trkpt>
      <trkpt lat="45.93566" lon="4.58837">
        <ele>422</ele>
        <time>2021-08-30T19:47:54Z</time>
      </trkpt>
      <trkpt lat="45.93529" lon="4.5885">
        <ele>417</ele>
        <time>2021-08-30T19:48:45Z</time>
      </trkpt>
      <trkpt lat="45.93489" lon="4.58858">
        <ele>412</ele>
        <time>2021-08-30T19:49:39Z</time>
      </trkpt>
      <trkpt lat="45.93486" lon="4.58883">
        <ele>410</ele>
        <time>2021-08-30T19:50:02Z</time>
      </trkpt>
      <trkpt lat="45.93472" lon="4.58898">
        <ele>407</ele>
        <time>2021-08-30T19:50:25Z</time>
      </trkpt>
      <trkpt lat="45.93413" lon="4.58946">
        <ele>399</ele>
        <time>2021-08-30T19:51:56Z</time>
      </trkpt>
      <trkpt lat="45.93377" lon="4.58985">
        <ele>396</ele>
        <time>2021-08-30T19:52:56Z</time>
      </trkpt>
      <trkpt lat="45.93369" lon="4.58995">
        <ele>395</ele>
        <time>2021-08-30T19:53:10Z</time>
      </trkpt>
      <trkpt lat="45.93352" lon="4.59045">
        <ele>387</ele>
        <time>2021-08-30T19:54:02Z</time>
      </trkpt>
      <trkpt lat="45.93337" lon="4.59063">
        <ele>384</ele>
        <time>2021-08-30T19:54:28Z</time>
      </trkpt>
      <trkpt lat="45.93308" lon="4.5909">
        <ele>381</ele>
        <time>2021-08-30T19:55:14Z</time>
      </trkpt>
      <trkpt lat="45.93283" lon="4.59103">
        <ele>379</ele>
        <time>2021-08-30T19:55:49Z</time>
      </trkpt>
      <trkpt lat="45.93235" lon="4.59117">
        <ele>377</ele>
        <time>2021-08-30T19:56:55Z</time>
      </trkpt>
      <trkpt lat="45.9322" lon="4.59129">
        <ele>374</ele>
        <time>2021-08-30T19:57:18Z</time>
      </trkpt>
      <trkpt lat="45.93212" lon="4.59144">
        <ele>371</ele>
        <time>2021-08-30T19:57:35Z</time>
      </trkpt>
      <trkpt lat="45.93182" lon="4.59171">
        <ele>366</ele>
        <time>2021-08-30T19:58:23Z</time>
      </trkpt>
      <trkpt lat="45.93132" lon="4.59203">
        <ele>363</ele>
        <time>2021-08-30T19:59:36Z</time>
      </trkpt>
      <trkpt lat="45.93119" lon="4.59209">
        <ele>362</ele>
        <time>2021-08-30T19:59:54Z</time>
      </trkpt>
      <trkpt lat="45.93106" lon="4.59209">
        <ele>362</ele>
        <time>2021-08-30T20:00:11Z</time>
      </trkpt>
      <trkpt lat="45.93067" lon="4.59213">
        <ele>362</ele>
        <time>2021-08-30T20:01:03Z</time>
      </trkpt>
      <trkpt lat="45.92999" lon="4.59228">
        <ele>360</ele>
        <time>2021-08-30T20:02:35Z</time>
      </trkpt>
      <trkpt lat="45.92966" lon="4.59241">
        <ele>358</ele>
        <time>2021-08-30T20:03:21Z</time>
      </trkpt>
      <trkpt lat="45.92907" lon="4.59238">
        <ele>360</ele>
        <time>2021-08-30T20:04:40Z</time>
      </trkpt>
      <trkpt lat="45.92856" lon="4.59231">
        <ele>358</ele>
        <time>2021-08-30T20:05:48Z</time>
      </trkpt>
      <trkpt lat="45.92684" lon="4.59174">
        <ele>360</ele>
        <time>2021-08-30T20:09:43Z</time>
      </trkpt>
      <trkpt lat="45.92648" lon="4.5916">
        <ele>361</ele>
        <time>2021-08-30T20:10:33Z</time>
      </trkpt>
      <trkpt lat="45.92639" lon="4.59185">
        <ele>355</ele>
        <time>2021-08-30T20:10:59Z</time>
      </trkpt>
      <trkpt lat="45.92635" lon="4.59196">
        <ele>352</ele>
        <time>2021-08-30T20:11:11Z</time>
      </trkpt>
      <trkpt lat="45.9264" lon="4.59199">
        <ele>352</ele>
        <time>2021-08-30T20:11:18Z</time>
      </trkpt>
      <trkpt lat="45.92644" lon="4.59205">
        <ele>351</ele>
        <time>2021-08-30T20:11:26Z</time>
      </trkpt>
      <trkpt lat="45.92644" lon="4.59213">
        <ele>349</ele>
        <time>2021-08-30T20:11:33Z</time>
      </trkpt>
      <trkpt lat="45.92641" lon="4.59221">
        <ele>347</ele>
        <time>2021-08-30T20:11:42Z</time>
      </trkpt>
      <trkpt lat="45.9266" lon="4.5922">
        <ele>349</ele>
        <time>2021-08-30T20:12:07Z</time>
      </trkpt>
      <trkpt lat="45.92686" lon="4.59207">
        <ele>353</ele>
        <time>2021-08-30T20:12:44Z</time>
      </trkpt>
      <trkpt lat="45.92718" lon="4.59203">
        <ele>355</ele>
        <time>2021-08-30T20:13:27Z</time>
      </trkpt>
      <trkpt lat="45.92743" lon="4.59214">
        <ele>354</ele>
        <time>2021-08-30T20:14:02Z</time>
      </trkpt>
      <trkpt lat="45.92763" lon="4.59237">
        <ele>350</ele>
        <time>2021-08-30T20:14:36Z</time>
      </trkpt>
      <trkpt lat="45.92772" lon="4.59259">
        <ele>348</ele>
        <time>2021-08-30T20:14:59Z</time>
      </trkpt>
      <trkpt lat="45.92774" lon="4.59281">
        <ele>349</ele>
        <time>2021-08-30T20:15:20Z</time>
      </trkpt>
      <trkpt lat="45.92772" lon="4.59298">
        <ele>349</ele>
        <time>2021-08-30T20:15:36Z</time>
      </trkpt>
      <trkpt lat="45.9276" lon="4.59331">
        <ele>351</ele>
        <time>2021-08-30T20:16:11Z</time>
      </trkpt>
      <trkpt lat="45.92755" lon="4.59341">
        <ele>353</ele>
        <time>2021-08-30T20:16:22Z</time>
      </trkpt>
      <trkpt lat="45.92749" lon="4.5935">
        <ele>356</ele>
        <time>2021-08-30T20:16:34Z</time>
      </trkpt>
      <trkpt lat="45.9273" lon="4.59362">
        <ele>356</ele>
        <time>2021-08-30T20:17:01Z</time>
      </trkpt>
      <trkpt lat="45.92711" lon="4.59373">
        <ele>356</ele>
        <time>2021-08-30T20:17:29Z</time>
      </trkpt>
      <trkpt lat="45.92695" lon="4.59375">
        <ele>355</ele>
        <time>2021-08-30T20:17:50Z</time>
      </trkpt>
      <trkpt lat="45.92679" lon="4.59392">
        <ele>355</ele>
        <time>2021-08-30T20:18:17Z</time>
      </trkpt>
      <trkpt lat="45.92663" lon="4.59413">
        <ele>356</ele>
        <time>2021-08-30T20:18:45Z</time>
      </trkpt>
      <trkpt lat="45.92644" lon="4.5945">
        <ele>359</ele>
        <time>2021-08-30T20:19:28Z</time>
      </trkpt>
      <trkpt lat="45.92638" lon="4.59458">
        <ele>360</ele>
        <time>2021-08-30T20:19:39Z</time>
      </trkpt>
      <trkpt lat="45.9262" lon="4.59472">
        <ele>361</ele>
        <time>2021-08-30T20:20:06Z</time>
      </trkpt>
      <trkpt lat="45.92594" lon="4.59478">
        <ele>361</ele>
        <time>2021-08-30T20:20:42Z</time>
      </trkpt>
      <trkpt lat="45.9257" lon="4.59472">
        <ele>361</ele>
        <time>2021-08-30T20:21:14Z</time>
      </trkpt>
      <trkpt lat="45.92526" lon="4.59452">
        <ele>360</ele>
        <time>2021-08-30T20:22:16Z</time>
      </trkpt>
      <trkpt lat="45.92503" lon="4.59449">
        <ele>360</ele>
        <time>2021-08-30T20:22:46Z</time>
      </trkpt>
      <trkpt lat="45.92476" lon="4.59452">
        <ele>362</ele>
        <time>2021-08-30T20:23:23Z</time>
      </trkpt>
      <trkpt lat="45.92453" lon="4.59444">
        <ele>363</ele>
        <time>2021-08-30T20:23:54Z</time>
      </trkpt>
      <trkpt lat="45.924" lon="4.59419">
        <ele>362</ele>
        <time>2021-08-30T20:25:09Z</time>
      </trkpt>
      <trkpt lat="45.92352" lon="4.59411">
        <ele>363</ele>
        <time>2021-08-30T20:26:13Z</time>
      </trkpt>
      <trkpt lat="45.92312" lon="4.59416">
        <ele>365</ele>
        <time>2021-08-30T20:27:07Z</time>
      </trkpt>
      <trkpt lat="45.92152" lon="4.59443">
        <ele>363</ele>
        <time>2021-08-30T20:30:42Z</time>
      </trkpt>
      <trkpt lat="45.92134" lon="4.59464">
        <ele>363</ele>
        <time>2021-08-30T20:31:13Z</time>
      </trkpt>
      <trkpt lat="45.92126" lon="4.59477">
        <ele>364</ele>
        <time>2021-08-30T20:31:29Z</time>
      </trkpt>
      <trkpt lat="45.92127" lon="4.59473">
        <ele>364</ele>
        <time>2021-08-30T20:31:33Z</time>
      </trkpt>
      <trkpt lat="45.9212" lon="4.59501">
        <ele>366</ele>
        <time>2021-08-30T20:32:00Z</time>
      </trkpt>
      <trkpt lat="45.92111" lon="4.59552">
        <ele>368</ele>
        <time>2021-08-30T20:32:49Z</time>
      </trkpt>
      <trkpt lat="45.921" lon="4.59639">
        <ele>373</ele>
        <time>2021-08-30T20:34:11Z</time>
      </trkpt>
      <trkpt lat="45.92101" lon="4.59654">
        <ele>375</ele>
        <time>2021-08-30T20:34:25Z</time>
      </trkpt>
      <trkpt lat="45.92093" lon="4.59673">
        <ele>375</ele>
        <time>2021-08-30T20:34:46Z</time>
      </trkpt>
      <trkpt lat="45.92094" lon="4.59691">
        <ele>377</ele>
        <time>2021-08-30T20:35:03Z</time>
      </trkpt>
      <trkpt lat="45.92098" lon="4.59716">
        <ele>379</ele>
        <time>2021-08-30T20:35:26Z</time>
      </trkpt>
      <trkpt lat="45.92111" lon="4.5975">
        <ele>383</ele>
        <time>2021-08-30T20:36:02Z</time>
      </trkpt>
      <trkpt lat="45.92149" lon="4.5982">
        <ele>383</ele>
        <time>2021-08-30T20:37:25Z</time>
      </trkpt>
      <trkpt lat="45.92168" lon="4.59888">
        <ele>381</ele>
        <time>2021-08-30T20:38:33Z</time>
      </trkpt>
      <trkpt lat="45.92178" lon="4.59908">
        <ele>381</ele>
        <time>2021-08-30T20:38:56Z</time>
      </trkpt>
      <trkpt lat="45.9218" lon="4.59919">
        <ele>380</ele>
        <time>2021-08-30T20:39:06Z</time>
      </trkpt>
      <trkpt lat="45.92187" lon="4.59949">
        <ele>381</ele>
        <time>2021-08-30T20:39:36Z</time>
      </trkpt>
      <trkpt lat="45.92187" lon="4.59979">
        <ele>382</ele>
        <time>2021-08-30T20:40:03Z</time>
      </trkpt>
      <trkpt lat="45.92173" lon="4.60027">
        <ele>384</ele>
        <time>2021-08-30T20:40:52Z</time>
      </trkpt>
      <trkpt lat="45.92165" lon="4.60036">
        <ele>385</ele>
        <time>2021-08-30T20:41:05Z</time>
      </trkpt>
      <trkpt lat="45.92134" lon="4.60053">
        <ele>386</ele>
        <time>2021-08-30T20:41:50Z</time>
      </trkpt>
      <trkpt lat="45.921" lon="4.60059">
        <ele>384</ele>
        <time>2021-08-30T20:42:35Z</time>
      </trkpt>
      <trkpt lat="45.9207" lon="4.60076">
        <ele>385</ele>
        <time>2021-08-30T20:43:18Z</time>
      </trkpt>
      <trkpt lat="45.92065" lon="4.60083">
        <ele>386</ele>
        <time>2021-08-30T20:43:28Z</time>
      </trkpt>
      <trkpt lat="45.92055" lon="4.60099">
        <ele>386</ele>
        <time>2021-08-30T20:43:48Z</time>
      </trkpt>
      <trkpt lat="45.92049" lon="4.60121">
        <ele>386</ele>
        <time>2021-08-30T20:44:10Z</time>
      </trkpt>
      <trkpt lat="45.92045" lon="4.60149">
        <ele>386</ele>
        <time>2021-08-30T20:44:36Z</time>
      </trkpt>
      <trkpt lat="45.92047" lon="4.60172">
        <ele>386</ele>
        <time>2021-08-30T20:44:58Z</time>
      </trkpt>
      <trkpt lat="45.92056" lon="4.60197">
        <ele>385</ele>
        <time>2021-08-30T20:45:24Z</time>
      </trkpt>
      <trkpt lat="45.92067" lon="4.60217">
        <ele>385</ele>
        <time>2021-08-30T20:45:47Z</time>
      </trkpt>
      <trkpt lat="45.92109" lon="4.60267">
        <ele>388</ele>
        <time>2021-08-30T20:47:00Z</time>
      </trkpt>
      <trkpt lat="45.9215" lon="4.60323">
        <ele>391</ele>
        <time>2021-08-30T20:48:16Z</time>
      </trkpt>
      <trkpt lat="45.92168" lon="4.6035">
        <ele>392</ele>
        <time>2021-08-30T20:48:50Z</time>
      </trkpt>
      <trkpt lat="45.92187" lon="4.60389">
        <ele>392</ele>
        <time>2021-08-30T20:49:35Z</time>
      </trkpt>
      <trkpt lat="45.92196" lon="4.60401">
        <ele>393</ele>
        <time>2021-08-30T20:49:51Z</time>
      </trkpt>
      <trkpt lat="45.92288" lon="4.60495">
        <ele>399</ele>
        <time>2021-08-30T20:52:22Z</time>
      </trkpt>
      <trkpt lat="45.92317" lon="4.60515">
        <ele>403</ele>
        <time>2021-08-30T20:53:05Z</time>
      </trkpt>
      <trkpt lat="45.92333" lon="4.60529">
        <ele>404</ele>
        <time>2021-08-30T20:53:30Z</time>
      </trkpt>
      <trkpt lat="45.92353" lon="4.60556">
        <ele>405</ele>
        <time>2021-08-30T20:54:06Z</time>
      </trkpt>
      <trkpt lat="45.9237" lon="4.60607">
        <ele>406</ele>
        <time>2021-08-30T20:54:59Z</time>
      </trkpt>
      <trkpt lat="45.92382" lon="4.60656">
        <ele>408</ele>
        <time>2021-08-30T20:55:47Z</time>
      </trkpt>
      <trkpt lat="45.92398" lon="4.60699">
        <ele>409</ele>
        <time>2021-08-30T20:56:32Z</time>
      </trkpt>
      <trkpt lat="45.92422" lon="4.60742">
        <ele>408</ele>
        <time>2021-08-30T20:57:23Z</time>
      </trkpt>
      <trkpt lat="45.92477" lon="4.60798">
        <ele>413</ele>
        <time>2021-08-30T20:58:53Z</time>
      </trkpt>
      <trkpt lat="45.92489" lon="4.60818">
        <ele>414</ele>
        <time>2021-08-30T20:59:18Z</time>
      </trkpt>
      <trkpt lat="45.92499" lon="4.6085">
        <ele>414</ele>
        <time>2021-08-30T20:59:50Z</time>
      </trkpt>
      <trkpt lat="45.92503" lon="4.6088">
        <ele>414</ele>
        <time>2021-08-30T21:00:19Z</time>
      </trkpt>
      <trkpt lat="45.92502" lon="4.60906">
        <ele>413</ele>
        <time>2021-08-30T21:00:43Z</time>
      </trkpt>
      <trkpt lat="45.92491" lon="4.60994">
        <ele>417</ele>
        <time>2021-08-30T21:02:06Z</time>
      </trkpt>
      <trkpt lat="45.92494" lon="4.61039">
        <ele>418</ele>
        <time>2021-08-30T21:02:48Z</time>
      </trkpt>
      <trkpt lat="45.925" lon="4.61055">
        <ele>418</ele>
        <time>2021-08-30T21:03:05Z</time>
      </trkpt>
      <trkpt lat="45.92509" lon="4.61058">
        <ele>419</ele>
        <time>2021-08-30T21:03:17Z</time>
      </trkpt>
      <trkpt lat="45.92514" lon="4.61056">
        <ele>419</ele>
        <time>2021-08-30T21:03:24Z</time>
      </trkpt>
      <trkpt lat="45.92529" lon="4.611">
        <ele>418</ele>
        <time>2021-08-30T21:04:09Z</time>
      </trkpt>
      <trkpt lat="45.9254" lon="4.61126">
        <ele>417</ele>
        <time>2021-08-30T21:04:38Z</time>
      </trkpt>
      <trkpt lat="45.92547" lon="4.61135">
        <ele>416</ele>
        <time>2021-08-30T21:04:50Z</time>
      </trkpt>
      <trkpt lat="45.92589" lon="4.61074">
        <ele>420</ele>
        <time>2021-08-30T21:06:10Z</time>
      </trkpt>
      <trkpt lat="45.92594" lon="4.61059">
        <ele>421</ele>
        <time>2021-08-30T21:06:25Z</time>
      </trkpt>
      <trkpt lat="45.92589" lon="4.61074">
        <ele>420</ele>
        <time>2021-08-30T21:06:41Z</time>
      </trkpt>
      <trkpt lat="45.9261" lon="4.61076">
        <ele>422</ele>
        <time>2021-08-30T21:07:09Z</time>
      </trkpt>
      <trkpt lat="45.92624" lon="4.61083">
        <ele>423</ele>
        <time>2021-08-30T21:07:29Z</time>
      </trkpt>
      <trkpt lat="45.92658" lon="4.61115">
        <ele>425</ele>
        <time>2021-08-30T21:08:23Z</time>
      </trkpt>
      <trkpt lat="45.92752" lon="4.61213">
        <ele>431</ele>
        <time>2021-08-30T21:10:58Z</time>
      </trkpt>
      <trkpt lat="45.92815" lon="4.61266">
        <ele>429</ele>
        <time>2021-08-30T21:12:35Z</time>
      </trkpt>
      <trkpt lat="45.9286" lon="4.613">
        <ele>428</ele>
        <time>2021-08-30T21:13:43Z</time>
      </trkpt>
      <trkpt lat="45.92881" lon="4.61311">
        <ele>428</ele>
        <time>2021-08-30T21:14:13Z</time>
      </trkpt>
      <trkpt lat="45.92911" lon="4.61319">
        <ele>428</ele>
        <time>2021-08-30T21:14:54Z</time>
      </trkpt>
      <trkpt lat="45.92964" lon="4.61323">
        <ele>424</ele>
        <time>2021-08-30T21:16:04Z</time>
      </trkpt>
      <trkpt lat="45.92978" lon="4.61323">
        <ele>423</ele>
        <time>2021-08-30T21:16:23Z</time>
      </trkpt>
      <trkpt lat="45.92987" lon="4.61319">
        <ele>423</ele>
        <time>2021-08-30T21:16:36Z</time>
      </trkpt>
      <trkpt lat="45.93008" lon="4.61299">
        <ele>424</ele>
        <time>2021-08-30T21:17:09Z</time>
      </trkpt>
      <trkpt lat="45.93028" lon="4.61265">
        <ele>427</ele>
        <time>2021-08-30T21:17:51Z</time>
      </trkpt>
      <trkpt lat="45.93036" lon="4.61255">
        <ele>428</ele>
        <time>2021-08-30T21:18:05Z</time>
      </trkpt>
      <trkpt lat="45.93058" lon="4.61233">
        <ele>429</ele>
        <time>2021-08-30T21:18:41Z</time>
      </trkpt>
      <trkpt lat="45.93077" lon="4.61218">
        <ele>429</ele>
        <time>2021-08-30T21:19:09Z</time>
      </trkpt>
      <trkpt lat="45.93132" lon="4.61187">
        <ele>431</ele>
        <time>2021-08-30T21:20:28Z</time>
      </trkpt>
      <trkpt lat="45.93217" lon="4.61166">
        <ele>431</ele>
        <time>2021-08-30T21:22:23Z</time>
      </trkpt>
      <trkpt lat="45.93253" lon="4.61151">
        <ele>431</ele>
        <time>2021-08-30T21:23:13Z</time>
      </trkpt>
      <trkpt lat="45.93324" lon="4.61108">
        <ele>436</ele>
        <time>2021-08-30T21:24:56Z</time>
      </trkpt>
      <trkpt lat="45.93413" lon="4.61066">
        <ele>440</ele>
        <time>2021-08-30T21:27:01Z</time>
      </trkpt>
      <trkpt lat="45.93444" lon="4.61044">
        <ele>438</ele>
        <time>2021-08-30T21:27:47Z</time>
      </trkpt>
      <trkpt lat="45.93469" lon="4.61016">
        <ele>437</ele>
        <time>2021-08-30T21:28:30Z</time>
      </trkpt>
      <trkpt lat="45.93487" lon="4.60973">
        <ele>438</ele>
        <time>2021-08-30T21:29:16Z</time>
      </trkpt>
      <trkpt lat="45.93494" lon="4.6094">
        <ele>438</ele>
        <time>2021-08-30T21:29:48Z</time>
      </trkpt>
      <trkpt lat="45.93499" lon="4.60892">
        <ele>437</ele>
        <time>2021-08-30T21:30:33Z</time>
      </trkpt>
      <trkpt lat="45.93508" lon="4.60837">
        <ele>436</ele>
        <time>2021-08-30T21:31:26Z</time>
      </trkpt>
      <trkpt lat="45.93535" lon="4.6073">
        <ele>443</ele>
        <time>2021-08-30T21:33:11Z</time>
      </trkpt>
      <trkpt lat="45.93545" lon="4.60705">
        <ele>445</ele>
        <time>2021-08-30T21:33:38Z</time>
      </trkpt>
      <trkpt lat="45.93566" lon="4.60668">
        <ele>446</ele>
        <time>2021-08-30T21:34:22Z</time>
      </trkpt>
      <trkpt lat="45.93592" lon="4.60628">
        <ele>449</ele>
        <time>2021-08-30T21:35:13Z</time>
      </trkpt>
      <trkpt lat="45.93593" lon="4.60625">
        <ele>449</ele>
        <time>2021-08-30T21:35:16Z</time>
      </trkpt>
      <trkpt lat="45.93592" lon="4.60628">
        <ele>449</ele>
        <time>2021-08-30T21:35:19Z</time>
      </trkpt>
      <trkpt lat="45.93707" lon="4.60848">
        <ele>419</ele>
        <time>2021-08-30T21:39:35Z</time>
      </trkpt>
      <trkpt lat="45.93712" lon="4.60854">
        <ele>419</ele>
        <time>2021-08-30T21:39:44Z</time>
      </trkpt>
      <trkpt lat="45.93721" lon="4.60857">
        <ele>418</ele>
        <time>2021-08-30T21:39:56Z</time>
      </trkpt>
      <trkpt lat="45.93738" lon="4.60842">
        <ele>419</ele>
        <time>2021-08-30T21:40:22Z</time>
      </trkpt>
      <trkpt lat="45.93742" lon="4.60842">
        <ele>419</ele>
        <time>2021-08-30T21:40:28Z</time>
      </trkpt>
      <trkpt lat="45.93746" lon="4.60844">
        <ele>418</ele>
        <time>2021-08-30T21:40:33Z</time>
      </trkpt>
      <trkpt lat="45.93761" lon="4.60869">
        <ele>416</ele>
        <time>2021-08-30T21:41:04Z</time>
      </trkpt>
      <trkpt lat="45.9379" lon="4.60831">
        <ele>418</ele>
        <time>2021-08-30T21:41:56Z</time>
      </trkpt>
      <trkpt lat="45.93801" lon="4.60821">
        <ele>418</ele>
        <time>2021-08-30T21:42:14Z</time>
      </trkpt>
      <trkpt lat="45.93815" lon="4.60812">
        <ele>418</ele>
        <time>2021-08-30T21:42:34Z</time>
      </trkpt>
      <trkpt lat="45.93843" lon="4.6078">
        <ele>418</ele>
        <time>2021-08-30T21:43:22Z</time>
      </trkpt>
      <trkpt lat="45.93923" lon="4.60684">
        <ele>421</ele>
        <time>2021-08-30T21:45:41Z</time>
      </trkpt>
      <trkpt lat="45.93953" lon="4.60664">
        <ele>423</ele>
        <time>2021-08-30T21:46:25Z</time>
      </trkpt>
      <trkpt lat="45.94005" lon="4.60646">
        <ele>427</ele>
        <time>2021-08-30T21:47:37Z</time>
      </trkpt>
      <trkpt lat="45.94015" lon="4.60657">
        <ele>427</ele>
        <time>2021-08-30T21:47:53Z</time>
      </trkpt>
      <trkpt lat="45.94018" lon="4.60675">
        <ele>427</ele>
        <time>2021-08-30T21:48:11Z</time>
      </trkpt>
      <trkpt lat="45.94014" lon="4.60691">
        <ele>428</ele>
        <time>2021-08-30T21:48:26Z</time>
      </trkpt>
      <trkpt lat="45.93975" lon="4.60755">
        <ele>424</ele>
        <time>2021-08-30T21:49:45Z</time>
      </trkpt>
      <trkpt lat="45.93964" lon="4.60788">
        <ele>425</ele>
        <time>2021-08-30T21:50:19Z</time>
      </trkpt>
      <trkpt lat="45.93959" lon="4.60812">
        <ele>427</ele>
        <time>2021-08-30T21:50:42Z</time>
      </trkpt>
      <trkpt lat="45.93952" lon="4.60898">
        <ele>434</ele>
        <time>2021-08-30T21:52:03Z</time>
      </trkpt>
      <trkpt lat="45.93941" lon="4.60972">
        <ele>439</ele>
        <time>2021-08-30T21:53:13Z</time>
      </trkpt>
      <trkpt lat="45.93939" lon="4.61013">
        <ele>443</ele>
        <time>2021-08-30T21:53:51Z</time>
      </trkpt>
      <trkpt lat="45.93926" lon="4.61083">
        <ele>445</ele>
        <time>2021-08-30T21:54:58Z</time>
      </trkpt>
      <trkpt lat="45.93912" lon="4.61125">
        <ele>445</ele>
        <time>2021-08-30T21:55:42Z</time>
      </trkpt>
      <trkpt lat="45.93911" lon="4.61147">
        <ele>446</ele>
        <time>2021-08-30T21:56:02Z</time>
      </trkpt>
      <trkpt lat="45.93918" lon="4.61179">
        <ele>449</ele>
        <time>2021-08-30T21:56:33Z</time>
      </trkpt>
      <trkpt lat="45.93929" lon="4.61193">
        <ele>451</ele>
        <time>2021-08-30T21:56:53Z</time>
      </trkpt>
      <trkpt lat="45.9394" lon="4.61202">
        <ele>452</ele>
        <time>2021-08-30T21:57:10Z</time>
      </trkpt>
      <trkpt lat="45.93949" lon="4.61213">
        <ele>453</ele>
        <time>2021-08-30T21:57:26Z</time>
      </trkpt>
      <trkpt lat="45.93957" lon="4.61227">
        <ele>454</ele>
        <time>2021-08-30T21:57:42Z</time>
      </trkpt>
      <trkpt lat="45.93976" lon="4.61307">
        <ele>454</ele>
        <time>2021-08-30T21:59:01Z</time>
      </trkpt>
      <trkpt lat="45.93969" lon="4.61338">
        <ele>453</ele>
        <time>2021-08-30T21:59:31Z</time>
      </trkpt>
      <trkpt lat="45.93968" lon="4.61348">
        <ele>453</ele>
        <time>2021-08-30T21:59:40Z</time>
      </trkpt>
      <trkpt lat="45.93967" lon="4.61424">
        <ele>453</ele>
        <time>2021-08-30T22:00:51Z</time>
      </trkpt>
      <trkpt lat="45.9397" lon="4.61437">
        <ele>453</ele>
        <time>2021-08-30T22:01:04Z</time>
      </trkpt>
      <trkpt lat="45.93973" lon="4.61441">
        <ele>454</ele>
        <time>2021-08-30T22:01:09Z</time>
      </trkpt>
      <trkpt lat="45.93972" lon="4.61444">
        <ele>454</ele>
        <time>2021-08-30T22:01:12Z</time>
      </trkpt>
      <trkpt lat="45.93973" lon="4.61452">
        <ele>454</ele>
        <time>2021-08-30T22:01:20Z</time>
      </trkpt>
      <trkpt lat="45.93976" lon="4.61456">
        <ele>454</ele>
        <time>2021-08-30T22:01:25Z</time>
      </trkpt>
      <trkpt lat="45.9398" lon="4.61456">
        <ele>455</ele>
        <time>2021-08-30T22:01:31Z</time>
      </trkpt>
      <trkpt lat="45.93984" lon="4.61498">
        <ele>455</ele>
        <time>2021-08-30T22:02:10Z</time>
      </trkpt>
      <trkpt lat="45.9399" lon="4.61545">
        <ele>457</ele>
        <time>2021-08-30T22:02:54Z</time>
      </trkpt>
      <trkpt lat="45.93991" lon="4.61573">
        <ele>458</ele>
        <time>2021-08-30T22:03:20Z</time>
      </trkpt>
      <trkpt lat="45.93975" lon="4.61611">
        <ele>457</ele>
        <time>2021-08-30T22:04:01Z</time>
      </trkpt>
      <trkpt lat="45.93964" lon="4.61626">
        <ele>456</ele>
        <time>2021-08-30T22:04:22Z</time>
      </trkpt>
      <trkpt lat="45.9399" lon="4.61658">
        <ele>462</ele>
        <time>2021-08-30T22:05:07Z</time>
      </trkpt>
      <trkpt lat="45.94006" lon="4.61699">
        <ele>463</ele>
        <time>2021-08-30T22:05:51Z</time>
      </trkpt>
      <trkpt lat="45.94038" lon="4.61744">
        <ele>464</ele>
        <time>2021-08-30T22:06:51Z</time>
      </trkpt>
      <trkpt lat="45.94048" lon="4.61764">
        <ele>462</ele>
        <time>2021-08-30T22:07:14Z</time>
      </trkpt>
      <trkpt lat="45.94051" lon="4.61759">
        <ele>463</ele>
        <time>2021-08-30T22:07:20Z</time>
      </trkpt>
      <trkpt lat="45.94087" lon="4.61751">
        <ele>467</ele>
        <time>2021-08-30T22:08:08Z</time>
      </trkpt>
      <trkpt lat="45.94089" lon="4.61723">
        <ele>469</ele>
        <time>2021-08-30T22:08:34Z</time>
      </trkpt>
      <trkpt lat="45.94093" lon="4.61718">
        <ele>470</ele>
        <time>2021-08-30T22:08:42Z</time>
      </trkpt>
      <trkpt lat="45.94104" lon="4.61718">
        <ele>470</ele>
        <time>2021-08-30T22:08:56Z</time>
      </trkpt>
      <trkpt lat="45.94111" lon="4.61718">
        <ele>470</ele>
        <time>2021-08-30T22:09:06Z</time>
      </trkpt>
      <trkpt lat="45.94132" lon="4.61712">
        <ele>471</ele>
        <time>2021-08-30T22:09:34Z</time>
      </trkpt>
      <trkpt lat="45.94112" lon="4.61707">
        <ele>471</ele>
        <time>2021-08-30T22:10:01Z</time>
      </trkpt>
      <trkpt lat="45.94097" lon="4.61707">
        <ele>471</ele>
        <time>2021-08-30T22:10:21Z</time>
      </trkpt>
      <trkpt lat="45.94093" lon="4.61703">
        <ele>471</ele>
        <time>2021-08-30T22:10:28Z</time>
      </trkpt>
      <trkpt lat="45.94089" lon="4.61668">
        <ele>474</ele>
        <time>2021-08-30T22:11:01Z</time>
      </trkpt>
      <trkpt lat="45.94091" lon="4.61648">
        <ele>474</ele>
        <time>2021-08-30T22:11:19Z</time>
      </trkpt>
      <trkpt lat="45.9409" lon="4.6164">
        <ele>473</ele>
        <time>2021-08-30T22:11:27Z</time>
      </trkpt>
      <trkpt lat="45.94088" lon="4.61637">
        <ele>473</ele>
        <time>2021-08-30T22:11:31Z</time>
      </trkpt>
      <trkpt lat="45.94098" lon="4.61632">
        <ele>475</ele>
        <time>2021-08-30T22:11:45Z</time>
      </trkpt>
      <trkpt lat="45.94127" lon="4.61622">
        <ele>480</ele>
        <time>2021-08-30T22:12:25Z</time>
      </trkpt>
      <trkpt lat="45.94135" lon="4.61621">
        <ele>482</ele>
        <time>2021-08-30T22:12:35Z</time>
      </trkpt>
      <trkpt lat="45.94157" lon="4.61624">
        <ele>486</ele>
        <time>2021-08-30T22:13:05Z</time>
      </trkpt>
      <trkpt lat="45.94187" lon="4.61605">
        <ele>493</ele>
        <time>2021-08-30T22:13:49Z</time>
      </trkpt>
      <trkpt lat="45.94199" lon="4.61594">
        <ele>497</ele>
        <time>2021-08-30T22:14:08Z</time>
      </trkpt>
      <trkpt lat="45.94202" lon="4.6157">
        <ele>500</ele>
        <time>2021-08-30T22:14:30Z</time>
      </trkpt>
      <trkpt lat="45.94208" lon="4.61542">
        <ele>505</ele>
        <time>2021-08-30T22:14:57Z</time>
      </trkpt>
      <trkpt lat="45.94212" lon="4.61517">
        <ele>509</ele>
        <time>2021-08-30T22:15:21Z</time>
      </trkpt>
      <trkpt lat="45.94219" lon="4.61491">
        <ele>513</ele>
        <time>2021-08-30T22:15:47Z</time>
      </trkpt>
      <trkpt lat="45.94227" lon="4.61492">
        <ele>516</ele>
        <time>2021-08-30T22:15:58Z</time>
      </trkpt>
      <trkpt lat="45.94233" lon="4.61495">
        <ele>517</ele>
        <time>2021-08-30T22:16:06Z</time>
      </trkpt>
      <trkpt lat="45.94239" lon="4.61493">
        <ele>519</ele>
        <time>2021-08-30T22:16:15Z</time>
      </trkpt>
      <trkpt lat="45.94243" lon="4.61495">
        <ele>520</ele>
        <time>2021-08-30T22:16:20Z</time>
      </trkpt>
      <trkpt lat="45.94258" lon="4.61488">
        <ele>523</ele>
        <time>2021-08-30T22:16:41Z</time>
      </trkpt>
      <trkpt lat="45.94274" lon="4.61475">
        <ele>525</ele>
        <time>2021-08-30T22:17:06Z</time>
      </trkpt>
      <trkpt lat="45.94282" lon="4.61473">
        <ele>526</ele>
        <time>2021-08-30T22:17:17Z</time>
      </trkpt>
      <trkpt lat="45.94306" lon="4.6147">
        <ele>529</ele>
        <time>2021-08-30T22:17:49Z</time>
      </trkpt>
      <trkpt lat="45.94374" lon="4.61475">
        <ele>530</ele>
        <time>2021-08-30T22:19:20Z</time>
      </trkpt>
      <trkpt lat="45.94409" lon="4.61467">
        <ele>531</ele>
        <time>2021-08-30T22:20:07Z</time>
      </trkpt>
      <trkpt lat="45.94423" lon="4.6146">
        <ele>532</ele>
        <time>2021-08-30T22:20:27Z</time>
      </trkpt>
      <trkpt lat="45.94532" lon="4.61419">
        <ele>536</ele>
        <time>2021-08-30T22:22:57Z</time>
      </trkpt>
      <trkpt lat="45.94551" lon="4.61403">
        <ele>538</ele>
        <time>2021-08-30T22:23:26Z</time>
      </trkpt>
      <trkpt lat="45.94573" lon="4.61388">
        <ele>539</ele>
        <time>2021-08-30T22:23:59Z</time>
      </trkpt>
      <trkpt lat="45.94606" lon="4.61373">
        <ele>541</ele>
        <time>2021-08-30T22:24:45Z</time>
      </trkpt>
      <trkpt lat="45.94664" lon="4.6133">
        <ele>543</ele>
        <time>2021-08-30T22:26:12Z</time>
      </trkpt>
      <trkpt lat="45.94722" lon="4.61318">
        <ele>541</ele>
        <time>2021-08-30T22:27:30Z</time>
      </trkpt>
      <trkpt lat="45.94739" lon="4.61307">
        <ele>542</ele>
        <time>2021-08-30T22:27:55Z</time>
      </trkpt>
      <trkpt lat="45.94754" lon="4.61241">
        <ele>552</ele>
        <time>2021-08-30T22:29:00Z</time>
      </trkpt>
      <trkpt lat="45.94776" lon="4.61195">
        <ele>555</ele>
        <time>2021-08-30T22:29:51Z</time>
      </trkpt>
      <trkpt lat="45.94798" lon="4.61146">
        <ele>558</ele>
        <time>2021-08-30T22:30:46Z</time>
      </trkpt>
      <trkpt lat="45.94829" lon="4.61038">
        <ele>566</ele>
        <time>2021-08-30T22:32:34Z</time>
      </trkpt>
      <trkpt lat="45.94843" lon="4.61011">
        <ele>568</ele>
        <time>2021-08-30T22:33:05Z</time>
      </trkpt>
      <trkpt lat="45.94864" lon="4.60958">
        <ele>571</ele>
        <time>2021-08-30T22:34:02Z</time>
      </trkpt>
      <trkpt lat="45.94875" lon="4.60927">
        <ele>573</ele>
        <time>2021-08-30T22:34:34Z</time>
      </trkpt>
      <trkpt lat="45.94876" lon="4.6088">
        <ele>575</ele>
        <time>2021-08-30T22:35:18Z</time>
      </trkpt>
      <trkpt lat="45.9487" lon="4.60852">
        <ele>577</ele>
        <time>2021-08-30T22:35:45Z</time>
      </trkpt>
      <trkpt lat="45.94842" lon="4.6074">
        <ele>580</ele>
        <time>2021-08-30T22:37:35Z</time>
      </trkpt>
      <trkpt lat="45.94818" lon="4.60673">
        <ele>576</ele>
        <time>2021-08-30T22:38:45Z</time>
      </trkpt>
      <trkpt lat="45.94809" lon="4.60642">
        <ele>573</ele>
        <time>2021-08-30T22:39:17Z</time>
      </trkpt>
      <trkpt lat="45.94819" lon="4.6058">
        <ele>572</ele>
        <time>2021-08-30T22:40:16Z</time>
      </trkpt>
      <trkpt lat="45.9483" lon="4.60551">
        <ele>572</ele>
        <time>2021-08-30T22:40:46Z</time>
      </trkpt>
      <trkpt lat="45.94863" lon="4.60495">
        <ele>568</ele>
        <time>2021-08-30T22:41:54Z</time>
      </trkpt>
      <trkpt lat="45.94899" lon="4.6044">
        <ele>570</ele>
        <time>2021-08-30T22:43:04Z</time>
      </trkpt>
      <trkpt lat="45.94911" lon="4.60419">
        <ele>573</ele>
        <time>2021-08-30T22:43:30Z</time>
      </trkpt>
      <trkpt lat="45.94983" lon="4.60315">
        <ele>570</ele>
        <time>2021-08-30T22:45:46Z</time>
      </trkpt>
      <trkpt lat="45.95003" lon="4.60282">
        <ele>572</ele>
        <time>2021-08-30T22:46:26Z</time>
      </trkpt>
      <trkpt lat="45.95004" lon="4.60273">
        <ele>572</ele>
        <time>2021-08-30T22:46:35Z</time>
      </trkpt>
      <trkpt lat="45.95013" lon="4.60273">
        <ele>572</ele>
        <time>2021-08-30T22:46:47Z</time>
      </trkpt>
      <trkpt lat="45.95029" lon="4.60264">
        <ele>573</ele>
        <time>2021-08-30T22:47:10Z</time>
      </trkpt>
      <trkpt lat="45.95017" lon="4.60221">
        <ele>570</ele>
        <time>2021-08-30T22:47:53Z</time>
      </trkpt>
      <trkpt lat="45.95008" lon="4.60162">
        <ele>563</ele>
        <time>2021-08-30T22:48:49Z</time>
      </trkpt>
      <trkpt lat="45.95003" lon="4.60146">
        <ele>561</ele>
        <time>2021-08-30T22:49:05Z</time>
      </trkpt>
      <trkpt lat="45.94995" lon="4.60136">
        <ele>559</ele>
        <time>2021-08-30T22:49:19Z</time>
      </trkpt>
      <trkpt lat="45.95005" lon="4.60077">
        <ele>556</ele>
        <time>2021-08-30T22:50:16Z</time>
      </trkpt>
      <trkpt lat="45.95008" lon="4.60044">
        <ele>556</ele>
        <time>2021-08-30T22:50:47Z</time>
      </trkpt>
      <trkpt lat="45.95012" lon="4.59921">
        <ele>555</ele>
        <time>2021-08-30T22:52:41Z</time>
      </trkpt>
      <trkpt lat="45.9501" lon="4.59803">
        <ele>555</ele>
        <time>2021-08-30T22:54:30Z</time>
      </trkpt>
      <trkpt lat="45.95001" lon="4.5977">
        <ele>553</ele>
        <time>2021-08-30T22:55:03Z</time>
      </trkpt>
      <trkpt lat="45.94999" lon="4.59757">
        <ele>553</ele>
        <time>2021-08-30T22:55:16Z</time>
      </trkpt>
      <trkpt lat="45.95" lon="4.59698">
        <ele>554</ele>
        <time>2021-08-30T22:56:10Z</time>
      </trkpt>
      <trkpt lat="45.94994" lon="4.59615">
        <ele>554</ele>
        <time>2021-08-30T22:57:28Z</time>
      </trkpt>
      <trkpt lat="45.94996" lon="4.59586">
        <ele>555</ele>
        <time>2021-08-30T22:57:55Z</time>
      </trkpt>
      <trkpt lat="45.94995" lon="4.595">
        <ele>560</ele>
        <time>2021-08-30T22:59:15Z</time>
      </trkpt>
      <trkpt lat="45.94991" lon="4.59479">
        <ele>561</ele>
        <time>2021-08-30T22:59:35Z</time>
      </trkpt>
      <trkpt lat="45.94966" lon="4.59407">
        <ele>565</ele>
        <time>2021-08-30T23:00:49Z</time>
      </trkpt>
      <trkpt lat="45.94941" lon="4.59363">
        <ele>565</ele>
        <time>2021-08-30T23:01:42Z</time>
      </trkpt>
      <trkpt lat="45.9493" lon="4.59364">
        <ele>564</ele>
        <time>2021-08-30T23:01:57Z</time>
      </trkpt>
      <trkpt lat="45.94901" lon="4.59303">
        <ele>562</ele>
        <time>2021-08-30T23:03:05Z</time>
      </trkpt>
      <trkpt lat="45.94892" lon="4.59272">
        <ele>560</ele>
        <time>2021-08-30T23:03:37Z</time>
      </trkpt>
      <trkpt lat="45.94892" lon="4.59253">
        <ele>559</ele>
        <time>2021-08-30T23:03:54Z</time>
      </trkpt>
      <trkpt lat="45.94898" lon="4.59209">
        <ele>556</ele>
        <time>2021-08-30T23:04:36Z</time>
      </trkpt>
      <trkpt lat="45.949" lon="4.59177">
        <ele>554</ele>
        <time>2021-08-30T23:05:06Z</time>
      </trkpt>
      <trkpt lat="45.94893" lon="4.59145">
        <ele>549</ele>
        <time>2021-08-30T23:05:37Z</time>
      </trkpt>
      <trkpt lat="45.9489" lon="4.59121">
        <ele>547</ele>
        <time>2021-08-30T23:05:59Z</time>
      </trkpt>
      <trkpt lat="45.94889" lon="4.59105">
        <ele>545</ele>
        <time>2021-08-30T23:06:14Z</time>
      </trkpt>
      <trkpt lat="45.94892" lon="4.59084">
        <ele>543</ele>
        <time>2021-08-30T23:06:34Z</time>
      </trkpt>
      <trkpt lat="45.94894" lon="4.59059">
        <ele>541</ele>
        <time>2021-08-30T23:06:58Z</time>
      </trkpt>
      <trkpt lat="45.94852" lon="4.58975">
        <ele>534</ele>
        <time>2021-08-30T23:08:34Z</time>
      </trkpt>
      <trkpt lat="45.94849" lon="4.58959">
        <ele>533</ele>
        <time>2021-08-30T23:08:49Z</time>
      </trkpt>
      <trkpt lat="45.94849" lon="4.58935">
        <ele>532</ele>
        <time>2021-08-30T23:09:11Z</time>
      </trkpt>
      <trkpt lat="45.94835" lon="4.58914">
        <ele>531</ele>
        <time>2021-08-30T23:09:38Z</time>
      </trkpt>
      <trkpt lat="45.94843" lon="4.58886">
        <ele>528</ele>
        <time>2021-08-30T23:10:06Z</time>
      </trkpt>
      <trkpt lat="45.94861" lon="4.58836">
        <ele>524</ele>
        <time>2021-08-30T23:10:58Z</time>
      </trkpt>
      <trkpt lat="45.94897" lon="4.58775">
        <ele>521</ele>
        <time>2021-08-30T23:12:13Z</time>
      </trkpt>
      <trkpt lat="45.94937" lon="4.58722">
        <ele>522</ele>
        <time>2021-08-30T23:13:25Z</time>
      </trkpt>
      <trkpt lat="45.94949" lon="4.5869">
        <ele>522</ele>
        <time>2021-08-30T23:13:59Z</time>
      </trkpt>
      <trkpt lat="45.94954" lon="4.58649">
        <ele>522</ele>
        <time>2021-08-30T23:14:38Z</time>
      </trkpt>
      <trkpt lat="45.94952" lon="4.58619">
        <ele>522</ele>
        <time>2021-08-30T23:15:06Z</time>
      </trkpt>
      <trkpt lat="45.94947" lon="4.58591">
        <ele>522</ele>
        <time>2021-08-30T23:15:32Z</time>
      </trkpt>
      <trkpt lat="45.94919" lon="4.58501">
        <ele>526</ele>
        <time>2021-08-30T23:17:04Z</time>
      </trkpt>
      <trkpt lat="45.94912" lon="4.58474">
        <ele>526</ele>
        <time>2021-08-30T23:17:31Z</time>
      </trkpt>
      <trkpt lat="45.94916" lon="4.58454">
        <ele>526</ele>
        <time>2021-08-30T23:17:50Z</time>
      </trkpt>
      <trkpt lat="45.94913" lon="4.58442">
        <ele>526</ele>
        <time>2021-08-30T23:18:02Z</time>
      </trkpt>
      <trkpt lat="45.9491" lon="4.58394">
        <ele>527</ele>
        <time>2021-08-30T23:18:47Z</time>
      </trkpt>
      <trkpt lat="45.9491" lon="4.58341">
        <ele>527</ele>
        <time>2021-08-30T23:19:36Z</time>
      </trkpt>
      <trkpt lat="45.94905" lon="4.58302">
        <ele>526</ele>
        <time>2021-08-30T23:20:13Z</time>
      </trkpt>
      <trkpt lat="45.94899" lon="4.58266">
        <ele>525</ele>
        <time>2021-08-30T23:20:47Z</time>
      </trkpt>
    </trkseg>
  </trk>
</gpx>